sensor_id;sensor_type;location;lat;lon;timestamp;P1;durP1;ratioP1;P2;durP2;ratioP2
76204;SDS011;64986;55.672;37.628;2023-01-04T17:10:27;7.25;;;3.13;;
76204;SDS011;64986;55.672;37.628;2023-01-04T17:12:52;8.30;;;2.75;;
76204;SDS011;64986;55.672;37.628;2023-01-04T17:15:18;7.80;;;3.13;;
76204;SDS011;64986;55.672;37.628;2023-01-04T17:17:43;5.00;;;2.95;;
76204;SDS011;64986;55.672;37.628;2023-01-04T17:20:09;8.10;;;4.03;;
76204;SDS011;64986;55.672;37.628;2023-01-04T17:22:36;12.10;;;4.10;;
76204;SDS011;64986;55.672;37.628;2023-01-04T17:25:02;8.13;;;3.63;;
76204;SDS011;64986;55.672;37.628;2023-01-04T17:27:28;5.82;;;3.22;;
76204;SDS011;64986;55.672;37.628;2023-01-04T17:29:53;8.80;;;4.00;;
76204;SDS011;64986;55.672;37.628;2023-01-04T17:32:19;8.48;;;3.63;;
76204;SDS011;64986;55.672;37.628;2023-01-04T17:34:44;5.32;;;3.53;;
76204;SDS011;64986;55.672;37.628;2023-01-04T17:37:09;10.98;;;4.25;;
76204;SDS011;64986;55.672;37.628;2023-01-04T17:39:35;8.15;;;4.15;;
76204;SDS011;64986;55.672;37.628;2023-01-04T17:42:00;6.95;;;3.83;;
76204;SDS011;64986;55.672;37.628;2023-01-04T17:44:26;6.32;;;3.55;;
76204;SDS011;64986;55.672;37.628;2023-01-04T17:46:51;6.07;;;2.88;;
76204;SDS011;64986;55.672;37.628;2023-01-04T17:49:17;7.13;;;3.85;;
76204;SDS011;64986;55.672;37.628;2023-01-04T17:51:42;5.75;;;3.45;;
76204;SDS011;64986;55.672;37.628;2023-01-04T17:54:09;6.22;;;3.67;;
76204;SDS011;64986;55.672;37.628;2023-01-04T17:56:35;7.15;;;4.28;;
76204;SDS011;64986;55.672;37.628;2023-01-04T17:59:01;8.93;;;4.20;;
76204;SDS011;64986;55.672;37.628;2023-01-04T18:01:28;6.97;;;3.80;;
76204;SDS011;64986;55.672;37.628;2023-01-04T18:03:55;8.93;;;3.92;;
76204;SDS011;64986;55.672;37.628;2023-01-04T18:06:23;9.98;;;4.45;;
76204;SDS011;64986;55.672;37.628;2023-01-04T18:08:56;9.52;;;4.88;;
76204;SDS011;64986;55.672;37.628;2023-01-04T18:11:22;8.05;;;4.18;;
76204;SDS011;64986;55.672;37.628;2023-01-04T18:13:49;5.65;;;3.78;;
76204;SDS011;64986;55.672;37.628;2023-01-04T18:16:25;6.95;;;3.30;;
76204;SDS011;64986;55.672;37.628;2023-01-04T18:18:53;6.15;;;3.10;;
76204;SDS011;64986;55.672;37.628;2023-01-04T18:21:21;5.25;;;3.20;;
76204;SDS011;64986;55.672;37.628;2023-01-04T18:23:50;7.22;;;4.20;;
76204;SDS011;64986;55.672;37.628;2023-01-04T18:26:18;5.70;;;3.67;;
76204;SDS011;64986;55.672;37.628;2023-01-04T18:28:43;3.08;;;1.65;;
76204;SDS011;64986;55.672;37.628;2023-01-04T18:31:10;6.38;;;3.22;;
76204;SDS011;64986;55.672;37.628;2023-01-04T18:33:36;3.85;;;2.55;;
76204;SDS011;64986;55.672;37.628;2023-01-04T18:36:03;6.40;;;3.67;;
76204;SDS011;64986;55.672;37.628;2023-01-04T18:38:30;4.10;;;2.58;;
76204;SDS011;64986;55.672;37.628;2023-01-04T18:40:56;3.47;;;2.05;;
76204;SDS011;64986;55.672;37.628;2023-01-04T18:43:23;5.70;;;3.55;;
76204;SDS011;64986;55.672;37.628;2023-01-04T18:45:48;6.20;;;3.40;;
76204;SDS011;64986;55.672;37.628;2023-01-04T18:48:14;2.63;;;1.73;;
76204;SDS011;64986;55.672;37.628;2023-01-04T18:50:40;6.93;;;2.55;;
76204;SDS011;64986;55.672;37.628;2023-01-04T18:53:05;5.60;;;1.80;;
76204;SDS011;64986;55.672;37.628;2023-01-04T18:55:31;3.42;;;2.35;;
76204;SDS011;64986;55.672;37.628;2023-01-04T18:57:56;4.47;;;2.42;;
76204;SDS011;64986;55.672;37.628;2023-01-04T19:00:22;4.38;;;2.63;;
76204;SDS011;64986;55.672;37.628;2023-01-04T19:02:53;7.03;;;4.00;;
76204;SDS011;64986;55.672;37.628;2023-01-04T19:05:22;4.05;;;2.58;;
76204;SDS011;64986;55.672;37.628;2023-01-04T19:07:51;4.60;;;2.10;;
76204;SDS011;64986;55.672;37.628;2023-01-04T19:10:18;4.10;;;2.72;;
76204;SDS011;64986;55.672;37.628;2023-01-04T19:12:43;4.28;;;1.98;;
76204;SDS011;64986;55.672;37.628;2023-01-04T19:15:09;4.47;;;2.25;;
76204;SDS011;64986;55.672;37.628;2023-01-04T19:17:35;4.45;;;1.77;;
76204;SDS011;64986;55.672;37.628;2023-01-04T19:20:00;3.28;;;2.10;;
76204;SDS011;64986;55.672;37.628;2023-01-04T19:22:26;3.75;;;2.35;;
76204;SDS011;64986;55.672;37.628;2023-01-04T19:24:52;6.53;;;2.40;;
76204;SDS011;64986;55.672;37.628;2023-01-04T19:27:17;3.13;;;2.05;;
76204;SDS011;64986;55.672;37.628;2023-01-04T19:29:44;7.22;;;2.35;;
76204;SDS011;64986;55.672;37.628;2023-01-04T19:32:10;3.60;;;2.17;;
76204;SDS011;64986;55.672;37.628;2023-01-04T19:34:36;1.83;;;1.20;;
76204;SDS011;64986;55.672;37.628;2023-01-04T19:37:02;3.00;;;1.50;;
76204;SDS011;64986;55.672;37.628;2023-01-04T19:39:27;5.28;;;2.75;;
76204;SDS011;64986;55.672;37.628;2023-01-04T19:41:53;3.05;;;1.63;;
76204;SDS011;64986;55.672;37.628;2023-01-04T19:44:19;4.30;;;2.30;;
76204;SDS011;64986;55.672;37.628;2023-01-04T19:46:44;4.85;;;2.22;;
76204;SDS011;64986;55.672;37.628;2023-01-04T19:49:10;2.53;;;1.90;;
76204;SDS011;64986;55.672;37.628;2023-01-04T19:51:35;3.33;;;1.73;;
76204;SDS011;64986;55.672;37.628;2023-01-04T19:54:01;2.63;;;1.48;;
76204;SDS011;64986;55.672;37.628;2023-01-04T19:56:27;3.67;;;1.80;;
76204;SDS011;64986;55.672;37.628;2023-01-04T19:58:52;2.20;;;1.02;;
76204;SDS011;64986;55.672;37.628;2023-01-04T20:01:18;4.03;;;2.05;;
76204;SDS011;64986;55.672;37.628;2023-01-04T20:03:45;2.42;;;1.40;;
76204;SDS011;64986;55.672;37.628;2023-01-04T20:06:12;7.05;;;2.90;;
76204;SDS011;64986;55.672;37.628;2023-01-04T20:08:38;5.63;;;2.25;;
76204;SDS011;64986;55.672;37.628;2023-01-04T20:11:04;5.05;;;2.47;;
76204;SDS011;64986;55.672;37.628;2023-01-04T20:13:31;3.40;;;2.10;;
76204;SDS011;64986;55.672;37.628;2023-01-04T20:15:58;4.80;;;2.50;;
76204;SDS011;64986;55.672;37.628;2023-01-04T20:18:24;3.08;;;1.92;;
76204;SDS011;64986;55.672;37.628;2023-01-04T20:20:49;2.65;;;1.50;;
76204;SDS011;64986;55.672;37.628;2023-01-04T20:23:16;4.70;;;1.00;;
76204;SDS011;64986;55.672;37.628;2023-01-04T20:25:43;3.75;;;1.52;;
76204;SDS011;64986;55.672;37.628;2023-01-04T20:28:10;5.57;;;1.83;;
76204;SDS011;64986;55.672;37.628;2023-01-04T20:30:37;3.70;;;1.73;;
76204;SDS011;64986;55.672;37.628;2023-01-04T20:33:02;1.55;;;1.10;;
76204;SDS011;64986;55.672;37.628;2023-01-04T20:35:28;2.97;;;1.17;;
76204;SDS011;64986;55.672;37.628;2023-01-04T20:37:55;2.83;;;1.55;;
76204;SDS011;64986;55.672;37.628;2023-01-04T20:40:25;3.85;;;1.90;;
76204;SDS011;64986;55.672;37.628;2023-01-04T20:42:52;4.35;;;1.65;;
76204;SDS011;64986;55.672;37.628;2023-01-04T20:45:42;5.72;;;2.15;;
76204;SDS011;64986;55.672;37.628;2023-01-04T20:48:10;2.58;;;1.23;;
76204;SDS011;64986;55.672;37.628;2023-01-04T20:50:37;1.90;;;1.27;;
76204;SDS011;64986;55.672;37.628;2023-01-04T20:53:03;1.50;;;0.90;;
76204;SDS011;64986;55.672;37.628;2023-01-04T20:55:28;4.68;;;1.25;;
76204;SDS011;64986;55.672;37.628;2023-01-04T20:57:54;5.22;;;1.33;;
76204;SDS011;64986;55.672;37.628;2023-01-04T21:00:19;4.00;;;0.95;;
76204;SDS011;64986;55.672;37.628;2023-01-04T21:02:45;3.78;;;1.60;;
76204;SDS011;64986;55.672;37.628;2023-01-04T21:05:10;3.47;;;1.40;;
76204;SDS011;64986;55.672;37.628;2023-01-04T21:07:36;1.88;;;0.77;;
76204;SDS011;64986;55.672;37.628;2023-01-04T21:10:02;0.80;;;0.60;;
76204;SDS011;64986;55.672;37.628;2023-01-04T21:12:27;2.13;;;1.27;;
76204;SDS011;64986;55.672;37.628;2023-01-04T21:14:53;2.47;;;1.65;;
76204;SDS011;64986;55.672;37.628;2023-01-04T21:17:18;3.03;;;1.40;;
76204;SDS011;64986;55.672;37.628;2023-01-04T21:19:44;2.55;;;1.13;;
76204;SDS011;64986;55.672;37.628;2023-01-04T21:22:10;2.58;;;1.30;;
76204;SDS011;64986;55.672;37.628;2023-01-04T21:24:35;5.03;;;1.45;;
76204;SDS011;64986;55.672;37.628;2023-01-04T21:27:01;2.58;;;1.33;;
76204;SDS011;64986;55.672;37.628;2023-01-04T21:29:26;1.05;;;0.77;;
76204;SDS011;64986;55.672;37.628;2023-01-04T21:31:55;1.00;;;0.80;;
76204;SDS011;64986;55.672;37.628;2023-01-04T21:34:21;1.30;;;0.65;;
76204;SDS011;64986;55.672;37.628;2023-01-04T21:36:46;2.95;;;1.23;;
76204;SDS011;64986;55.672;37.628;2023-01-04T21:39:12;1.75;;;0.75;;
76204;SDS011;64986;55.672;37.628;2023-01-04T21:41:37;1.17;;;0.85;;
76204;SDS011;64986;55.672;37.628;2023-01-04T21:44:03;1.58;;;0.80;;
76204;SDS011;64986;55.672;37.628;2023-01-04T21:46:28;1.45;;;0.95;;
76204;SDS011;64986;55.672;37.628;2023-01-04T21:48:55;2.45;;;0.98;;
76204;SDS011;64986;55.672;37.628;2023-01-04T21:51:22;0.75;;;0.57;;
76204;SDS011;64986;55.672;37.628;2023-01-04T21:53:48;1.58;;;0.75;;
76204;SDS011;64986;55.672;37.628;2023-01-04T21:56:15;2.05;;;0.95;;
76204;SDS011;64986;55.672;37.628;2023-01-04T21:58:42;0.75;;;0.50;;
76204;SDS011;64986;55.672;37.628;2023-01-04T22:01:12;1.30;;;0.90;;
76204;SDS011;64986;55.672;37.628;2023-01-04T22:03:40;2.88;;;0.90;;
76204;SDS011;64986;55.672;37.628;2023-01-04T22:06:06;1.33;;;0.90;;
76204;SDS011;64986;55.672;37.628;2023-01-04T22:08:32;1.63;;;0.68;;
76204;SDS011;64986;55.672;37.628;2023-01-04T22:10:58;0.75;;;0.47;;
76204;SDS011;64986;55.672;37.628;2023-01-04T22:13:24;1.55;;;0.85;;
76204;SDS011;64986;55.672;37.628;2023-01-04T22:15:49;1.42;;;0.88;;
76204;SDS011;64986;55.672;37.628;2023-01-04T22:18:15;0.63;;;0.43;;
76204;SDS011;64986;55.672;37.628;2023-01-04T22:20:42;1.65;;;0.60;;
76204;SDS011;64986;55.672;37.628;2023-01-04T22:23:08;1.92;;;0.70;;
76204;SDS011;64986;55.672;37.628;2023-01-04T22:25:34;1.25;;;0.60;;
76204;SDS011;64986;55.672;37.628;2023-01-04T22:28:00;0.98;;;0.93;;
76204;SDS011;64986;55.672;37.628;2023-01-04T22:30:25;2.08;;;0.60;;
76204;SDS011;64986;55.672;37.628;2023-01-04T22:32:52;0.77;;;0.60;;
76204;SDS011;64986;55.672;37.628;2023-01-04T22:35:18;0.32;;;0.32;;
76204;SDS011;64986;55.672;37.628;2023-01-04T22:37:43;0.95;;;0.70;;
76204;SDS011;64986;55.672;37.628;2023-01-04T22:40:09;0.82;;;0.40;;
76204;SDS011;64986;55.672;37.628;2023-01-04T22:42:36;0.43;;;0.43;;
76204;SDS011;64986;55.672;37.628;2023-01-04T22:45:01;0.50;;;0.50;;
76204;SDS011;64986;55.672;37.628;2023-01-04T22:47:27;0.57;;;0.55;;
76204;SDS011;64986;55.672;37.628;2023-01-04T22:49:52;0.98;;;0.50;;
76204;SDS011;64986;55.672;37.628;2023-01-04T22:52:18;0.85;;;0.43;;
76204;SDS011;64986;55.672;37.628;2023-01-04T22:54:45;2.75;;;0.30;;
76204;SDS011;64986;55.672;37.628;2023-01-04T22:57:11;0.77;;;0.70;;
76204;SDS011;64986;55.672;37.628;2023-01-04T22:59:37;0.82;;;0.38;;
76204;SDS011;64986;55.672;37.628;2023-01-04T23:02:02;0.30;;;0.17;;
76204;SDS011;64986;55.672;37.628;2023-01-04T23:04:28;1.23;;;0.50;;
76204;SDS011;64986;55.672;37.628;2023-01-04T23:06:53;0.50;;;0.40;;
76204;SDS011;64986;55.672;37.628;2023-01-04T23:09:19;0.30;;;0.25;;
76204;SDS011;64986;55.672;37.628;2023-01-04T23:11:44;0.98;;;0.43;;
76204;SDS011;64986;55.672;37.628;2023-01-04T23:14:11;0.60;;;0.47;;
76204;SDS011;64986;55.672;37.628;2023-01-04T23:16:39;0.57;;;0.40;;
76204;SDS011;64986;55.672;37.628;2023-01-04T23:19:05;0.17;;;0.17;;
76204;SDS011;64986;55.672;37.628;2023-01-04T23:21:31;1.70;;;0.63;;
76204;SDS011;64986;55.672;37.628;2023-01-04T23:23:58;1.63;;;0.40;;
76204;SDS011;64986;55.672;37.628;2023-01-04T23:26:24;0.13;;;0.13;;
76204;SDS011;64986;55.672;37.628;2023-01-04T23:28:51;1.40;;;0.20;;
76204;SDS011;64986;55.672;37.628;2023-01-04T23:31:18;2.70;;;0.73;;
76204;SDS011;64986;55.672;37.628;2023-01-04T23:33:49;0.55;;;0.40;;
76204;SDS011;64986;55.672;37.628;2023-01-04T23:36:17;0.80;;;0.43;;
76204;SDS011;64986;55.672;37.628;2023-01-04T23:38:48;1.55;;;0.40;;
76204;SDS011;64986;55.672;37.628;2023-01-04T23:41:16;0.20;;;0.20;;
76204;SDS011;64986;55.672;37.628;2023-01-04T23:43:41;0.75;;;0.55;;
76204;SDS011;64986;55.672;37.628;2023-01-04T23:46:07;0.43;;;0.25;;
76204;SDS011;64986;55.672;37.628;2023-01-04T23:48:37;1.08;;;0.68;;
76204;SDS011;64986;55.672;37.628;2023-01-04T23:51:03;0.82;;;0.43;;
76204;SDS011;64986;55.672;37.628;2023-01-04T23:53:29;0.63;;;0.20;;
76204;SDS011;64986;55.672;37.628;2023-01-04T23:55:59;0.73;;;0.63;;
76204;SDS011;64986;55.672;37.628;2023-01-04T23:58:30;0.68;;;0.40;;
